sensor_id;sensor_type;location;lat;lon;timestamp;P1;durP1;ratioP1;P2;durP2;ratioP2
34585;SDS011;20816;50.950;11.108;2023-09-08T00:02:13;3.13;;;2.40;;
34585;SDS011;20816;50.950;11.108;2023-09-08T00:04:39;4.63;;;2.45;;
34585;SDS011;20816;50.950;11.108;2023-09-08T00:07:06;3.72;;;2.30;;
34585;SDS011;20816;50.950;11.108;2023-09-08T00:09:33;3.20;;;2.45;;
34585;SDS011;20816;50.950;11.108;2023-09-08T00:12:00;4.40;;;2.45;;
34585;SDS011;20816;50.950;11.108;2023-09-08T00:14:28;4.30;;;3.00;;
34585;SDS011;20816;50.950;11.108;2023-09-08T00:16:54;4.45;;;2.67;;
34585;SDS011;20816;50.950;11.108;2023-09-08T00:19:21;2.80;;;2.28;;
34585;SDS011;20816;50.950;11.108;2023-09-08T00:21:49;3.63;;;2.72;;
34585;SDS011;20816;50.950;11.108;2023-09-08T00:24:16;4.03;;;2.67;;
34585;SDS011;20816;50.950;11.108;2023-09-08T00:26:44;4.13;;;2.57;;
34585;SDS011;20816;50.950;11.108;2023-09-08T00:29:11;3.60;;;2.67;;
34585;SDS011;20816;50.950;11.108;2023-09-08T00:31:38;5.20;;;2.47;;
34585;SDS011;20816;50.950;11.108;2023-09-08T00:34:05;4.13;;;2.77;;
34585;SDS011;20816;50.950;11.108;2023-09-08T00:36:33;5.37;;;2.60;;
34585;SDS011;20816;50.950;11.108;2023-09-08T00:39:00;4.43;;;2.60;;
34585;SDS011;20816;50.950;11.108;2023-09-08T00:41:26;3.43;;;2.43;;
34585;SDS011;20816;50.950;11.108;2023-09-08T00:43:53;3.90;;;2.63;;
34585;SDS011;20816;50.950;11.108;2023-09-08T00:46:20;4.50;;;3.37;;
34585;SDS011;20816;50.950;11.108;2023-09-08T00:48:47;3.57;;;2.60;;
34585;SDS011;20816;50.950;11.108;2023-09-08T00:51:14;4.38;;;2.95;;
34585;SDS011;20816;50.950;11.108;2023-09-08T00:53:41;3.27;;;2.13;;
34585;SDS011;20816;50.950;11.108;2023-09-08T00:56:08;4.77;;;3.30;;
34585;SDS011;20816;50.950;11.108;2023-09-08T00:58:36;4.13;;;2.30;;
34585;SDS011;20816;50.950;11.108;2023-09-08T01:01:03;2.90;;;2.50;;
34585;SDS011;20816;50.950;11.108;2023-09-08T01:03:32;4.60;;;2.80;;
34585;SDS011;20816;50.950;11.108;2023-09-08T01:05:59;3.67;;;2.50;;
34585;SDS011;20816;50.950;11.108;2023-09-08T01:08:26;4.50;;;2.80;;
34585;SDS011;20816;50.950;11.108;2023-09-08T01:10:53;3.23;;;2.43;;
34585;SDS011;20816;50.950;11.108;2023-09-08T01:13:21;7.23;;;2.67;;
34585;SDS011;20816;50.950;11.108;2023-09-08T01:15:48;7.67;;;3.27;;
34585;SDS011;20816;50.950;11.108;2023-09-08T01:18:15;3.57;;;2.63;;
34585;SDS011;20816;50.950;11.108;2023-09-08T01:20:56;2.80;;;2.30;;
34585;SDS011;20816;50.950;11.108;2023-09-08T01:26:14;5.77;;;2.80;;
34585;SDS011;20816;50.950;11.108;2023-09-08T01:28:45;4.10;;;2.77;;
34585;SDS011;20816;50.950;11.108;2023-09-08T01:31:16;4.23;;;2.93;;
34585;SDS011;20816;50.950;11.108;2023-09-08T01:33:43;3.53;;;2.73;;
34585;SDS011;20816;50.950;11.108;2023-09-08T01:36:11;2.80;;;2.43;;
34585;SDS011;20816;50.950;11.108;2023-09-08T01:38:39;4.77;;;3.07;;
34585;SDS011;20816;50.950;11.108;2023-09-08T01:41:06;3.13;;;2.53;;
34585;SDS011;20816;50.950;11.108;2023-09-08T01:43:32;4.07;;;2.97;;
34585;SDS011;20816;50.950;11.108;2023-09-08T01:45:59;3.07;;;2.47;;
34585;SDS011;20816;50.950;11.108;2023-09-08T01:48:26;4.47;;;2.70;;
34585;SDS011;20816;50.950;11.108;2023-09-08T01:50:52;4.63;;;2.97;;
34585;SDS011;20816;50.950;11.108;2023-09-08T01:53:19;3.57;;;2.73;;
34585;SDS011;20816;50.950;11.108;2023-09-08T01:55:46;3.30;;;2.80;;
34585;SDS011;20816;50.950;11.108;2023-09-08T01:58:12;4.70;;;2.90;;
34585;SDS011;20816;50.950;11.108;2023-09-08T02:00:39;3.43;;;2.57;;
34585;SDS011;20816;50.950;11.108;2023-09-08T02:03:05;6.40;;;3.37;;
34585;SDS011;20816;50.950;11.108;2023-09-08T02:05:32;5.23;;;3.00;;
34585;SDS011;20816;50.950;11.108;2023-09-08T02:08:00;6.70;;;2.97;;
34585;SDS011;20816;50.950;11.108;2023-09-08T02:10:27;5.23;;;2.87;;
34585;SDS011;20816;50.950;11.108;2023-09-08T02:12:54;4.13;;;3.50;;
34585;SDS011;20816;50.950;11.108;2023-09-08T02:15:20;5.23;;;3.13;;
34585;SDS011;20816;50.950;11.108;2023-09-08T02:17:50;3.47;;;2.77;;
34585;SDS011;20816;50.950;11.108;2023-09-08T02:20:19;4.13;;;2.77;;
34585;SDS011;20816;50.950;11.108;2023-09-08T02:22:46;6.03;;;2.50;;
34585;SDS011;20816;50.950;11.108;2023-09-08T02:25:15;5.83;;;3.13;;
34585;SDS011;20816;50.950;11.108;2023-09-08T02:27:43;4.40;;;3.03;;
34585;SDS011;20816;50.950;11.108;2023-09-08T02:30:09;4.80;;;3.30;;
34585;SDS011;20816;50.950;11.108;2023-09-08T02:32:36;3.27;;;2.87;;
34585;SDS011;20816;50.950;11.108;2023-09-08T02:35:03;5.70;;;3.40;;
34585;SDS011;20816;50.950;11.108;2023-09-08T02:37:30;4.73;;;3.87;;
34585;SDS011;20816;50.950;11.108;2023-09-08T02:39:57;3.13;;;2.47;;
34585;SDS011;20816;50.950;11.108;2023-09-08T02:42:23;2.67;;;2.47;;
34585;SDS011;20816;50.950;11.108;2023-09-08T02:44:50;4.83;;;3.03;;
34585;SDS011;20816;50.950;11.108;2023-09-08T02:47:17;3.73;;;2.83;;
34585;SDS011;20816;50.950;11.108;2023-09-08T02:49:44;4.53;;;2.70;;
34585;SDS011;20816;50.950;11.108;2023-09-08T02:52:10;6.37;;;3.30;;
34585;SDS011;20816;50.950;11.108;2023-09-08T02:54:37;3.67;;;2.73;;
34585;SDS011;20816;50.950;11.108;2023-09-08T02:57:04;5.07;;;2.73;;
34585;SDS011;20816;50.950;11.108;2023-09-08T02:59:30;3.40;;;2.33;;
34585;SDS011;20816;50.950;11.108;2023-09-08T03:01:57;4.97;;;3.50;;
34585;SDS011;20816;50.950;11.108;2023-09-08T03:04:25;7.13;;;2.77;;
34585;SDS011;20816;50.950;11.108;2023-09-08T03:06:52;4.63;;;3.17;;
34585;SDS011;20816;50.950;11.108;2023-09-08T03:09:18;3.53;;;2.77;;
34585;SDS011;20816;50.950;11.108;2023-09-08T03:11:45;4.30;;;3.13;;
34585;SDS011;20816;50.950;11.108;2023-09-08T03:14:12;3.63;;;2.77;;
34585;SDS011;20816;50.950;11.108;2023-09-08T03:16:38;3.57;;;3.17;;
34585;SDS011;20816;50.950;11.108;2023-09-08T03:19:05;6.60;;;3.17;;
34585;SDS011;20816;50.950;11.108;2023-09-08T03:21:32;3.67;;;2.77;;
34585;SDS011;20816;50.950;11.108;2023-09-08T03:23:59;6.23;;;3.60;;
34585;SDS011;20816;50.950;11.108;2023-09-08T03:26:25;6.50;;;2.97;;
34585;SDS011;20816;50.950;11.108;2023-09-08T03:28:52;9.70;;;3.40;;
34585;SDS011;20816;50.950;11.108;2023-09-08T03:31:19;6.43;;;3.03;;
34585;SDS011;20816;50.950;11.108;2023-09-08T03:33:46;3.80;;;2.73;;
34585;SDS011;20816;50.950;11.108;2023-09-08T03:36:12;4.83;;;2.70;;
34585;SDS011;20816;50.950;11.108;2023-09-08T03:38:39;4.00;;;2.87;;
34585;SDS011;20816;50.950;11.108;2023-09-08T03:41:07;5.57;;;3.57;;
34585;SDS011;20816;50.950;11.108;2023-09-08T03:43:34;4.43;;;3.03;;
34585;SDS011;20816;50.950;11.108;2023-09-08T03:46:02;4.23;;;2.90;;
34585;SDS011;20816;50.950;11.108;2023-09-08T03:48:29;5.80;;;3.07;;
34585;SDS011;20816;50.950;11.108;2023-09-08T03:50:55;5.10;;;3.20;;
34585;SDS011;20816;50.950;11.108;2023-09-08T03:53:22;5.13;;;3.10;;
34585;SDS011;20816;50.950;11.108;2023-09-08T03:55:49;3.10;;;2.67;;
34585;SDS011;20816;50.950;11.108;2023-09-08T03:58:16;3.27;;;2.87;;
34585;SDS011;20816;50.950;11.108;2023-09-08T04:00:43;4.93;;;2.67;;
34585;SDS011;20816;50.950;11.108;2023-09-08T04:03:09;5.83;;;2.80;;
34585;SDS011;20816;50.950;11.108;2023-09-08T04:05:36;3.80;;;2.87;;
34585;SDS011;20816;50.950;11.108;2023-09-08T04:08:03;7.73;;;2.63;;
34585;SDS011;20816;50.950;11.108;2023-09-08T04:10:31;4.97;;;3.43;;
34585;SDS011;20816;50.950;11.108;2023-09-08T04:12:58;4.80;;;3.00;;
34585;SDS011;20816;50.950;11.108;2023-09-08T04:15:25;3.53;;;2.80;;
34585;SDS011;20816;50.950;11.108;2023-09-08T04:17:51;2.87;;;2.27;;
34585;SDS011;20816;50.950;11.108;2023-09-08T04:20:18;3.33;;;2.50;;
34585;SDS011;20816;50.950;11.108;2023-09-08T04:22:45;8.20;;;3.70;;
34585;SDS011;20816;50.950;11.108;2023-09-08T04:25:13;4.37;;;3.10;;
34585;SDS011;20816;50.950;11.108;2023-09-08T04:27:39;8.80;;;3.23;;
34585;SDS011;20816;50.950;11.108;2023-09-08T04:30:07;4.97;;;2.93;;
34585;SDS011;20816;50.950;11.108;2023-09-08T04:32:34;6.47;;;2.93;;
34585;SDS011;20816;50.950;11.108;2023-09-08T04:35:01;5.17;;;2.80;;
34585;SDS011;20816;50.950;11.108;2023-09-08T04:37:27;3.80;;;2.87;;
34585;SDS011;20816;50.950;11.108;2023-09-08T04:39:54;4.20;;;3.13;;
34585;SDS011;20816;50.950;11.108;2023-09-08T04:42:20;5.60;;;3.77;;
34585;SDS011;20816;50.950;11.108;2023-09-08T04:44:47;7.10;;;3.27;;
34585;SDS011;20816;50.950;11.108;2023-09-08T04:47:14;3.80;;;2.70;;
34585;SDS011;20816;50.950;11.108;2023-09-08T04:49:41;4.33;;;2.93;;
34585;SDS011;20816;50.950;11.108;2023-09-08T04:52:08;8.03;;;3.43;;
34585;SDS011;20816;50.950;11.108;2023-09-08T04:54:34;5.90;;;3.50;;
34585;SDS011;20816;50.950;11.108;2023-09-08T04:57:01;6.17;;;3.40;;
34585;SDS011;20816;50.950;11.108;2023-09-08T04:59:47;5.70;;;3.43;;
34585;SDS011;20816;50.950;11.108;2023-09-08T05:02:14;3.77;;;3.37;;
34585;SDS011;20816;50.950;11.108;2023-09-08T05:04:41;4.53;;;3.13;;
34585;SDS011;20816;50.950;11.108;2023-09-08T05:07:08;4.73;;;3.30;;
34585;SDS011;20816;50.950;11.108;2023-09-08T05:09:34;5.33;;;3.63;;
34585;SDS011;20816;50.950;11.108;2023-09-08T05:12:01;5.43;;;3.47;;
34585;SDS011;20816;50.950;11.108;2023-09-08T05:14:28;8.17;;;3.10;;
34585;SDS011;20816;50.950;11.108;2023-09-08T05:16:54;7.33;;;3.90;;
34585;SDS011;20816;50.950;11.108;2023-09-08T05:19:22;4.57;;;3.83;;
34585;SDS011;20816;50.950;11.108;2023-09-08T05:21:50;7.60;;;3.60;;
34585;SDS011;20816;50.950;11.108;2023-09-08T05:24:21;6.10;;;4.17;;
34585;SDS011;20816;50.950;11.108;2023-09-08T05:26:48;5.77;;;4.13;;
34585;SDS011;20816;50.950;11.108;2023-09-08T05:29:15;12.37;;;4.17;;
34585;SDS011;20816;50.950;11.108;2023-09-08T05:31:41;6.37;;;4.00;;
34585;SDS011;20816;50.950;11.108;2023-09-08T05:34:08;5.70;;;3.70;;
34585;SDS011;20816;50.950;11.108;2023-09-08T05:36:35;5.33;;;3.83;;
34585;SDS011;20816;50.950;11.108;2023-09-08T05:39:04;5.93;;;3.30;;
34585;SDS011;20816;50.950;11.108;2023-09-08T05:41:31;5.23;;;3.73;;
34585;SDS011;20816;50.950;11.108;2023-09-08T05:44:00;10.33;;;4.53;;
34585;SDS011;20816;50.950;11.108;2023-09-08T05:46:27;6.60;;;4.17;;
34585;SDS011;20816;50.950;11.108;2023-09-08T05:48:54;4.80;;;3.47;;
34585;SDS011;20816;50.950;11.108;2023-09-08T05:51:21;4.57;;;3.07;;
34585;SDS011;20816;50.950;11.108;2023-09-08T05:53:49;5.27;;;3.60;;
34585;SDS011;20816;50.950;11.108;2023-09-08T05:56:17;4.20;;;3.30;;
34585;SDS011;20816;50.950;11.108;2023-09-08T05:58:45;5.77;;;4.27;;
34585;SDS011;20816;50.950;11.108;2023-09-08T06:01:12;8.70;;;3.93;;
34585;SDS011;20816;50.950;11.108;2023-09-08T06:03:38;4.97;;;3.60;;
34585;SDS011;20816;50.950;11.108;2023-09-08T06:06:05;8.37;;;3.90;;
34585;SDS011;20816;50.950;11.108;2023-09-08T06:08:32;5.95;;;3.63;;
34585;SDS011;20816;50.950;11.108;2023-09-08T06:11:00;5.30;;;3.58;;
34585;SDS011;20816;50.950;11.108;2023-09-08T06:13:26;8.95;;;3.75;;
34585;SDS011;20816;50.950;11.108;2023-09-08T06:15:53;6.20;;;3.20;;
34585;SDS011;20816;50.950;11.108;2023-09-08T06:18:20;7.07;;;3.78;;
34585;SDS011;20816;50.950;11.108;2023-09-08T06:20:48;12.05;;;4.10;;
34585;SDS011;20816;50.950;11.108;2023-09-08T06:23:15;5.57;;;3.58;;
34585;SDS011;20816;50.950;11.108;2023-09-08T06:25:42;3.65;;;3.08;;
34585;SDS011;20816;50.950;11.108;2023-09-08T06:28:08;5.63;;;2.97;;
34585;SDS011;20816;50.950;11.108;2023-09-08T06:30:35;4.82;;;3.10;;
34585;SDS011;20816;50.950;11.108;2023-09-08T06:33:02;3.58;;;2.95;;
34585;SDS011;20816;50.950;11.108;2023-09-08T06:35:29;4.85;;;3.22;;
34585;SDS011;20816;50.950;11.108;2023-09-08T06:37:56;6.07;;;3.50;;
34585;SDS011;20816;50.950;11.108;2023-09-08T06:40:24;11.05;;;3.28;;
34585;SDS011;20816;50.950;11.108;2023-09-08T06:42:51;7.55;;;3.45;;
34585;SDS011;20816;50.950;11.108;2023-09-08T06:45:18;6.57;;;3.38;;
34585;SDS011;20816;50.950;11.108;2023-09-08T06:47:45;9.45;;;3.55;;
34585;SDS011;20816;50.950;11.108;2023-09-08T06:50:11;6.25;;;3.90;;
34585;SDS011;20816;50.950;11.108;2023-09-08T06:52:38;4.72;;;3.05;;
34585;SDS011;20816;50.950;11.108;2023-09-08T06:55:05;11.00;;;3.72;;
34585;SDS011;20816;50.950;11.108;2023-09-08T06:57:32;7.43;;;3.67;;
34585;SDS011;20816;50.950;11.108;2023-09-08T06:59:59;5.10;;;3.35;;
34585;SDS011;20816;50.950;11.108;2023-09-08T07:02:25;5.38;;;3.25;;
34585;SDS011;20816;50.950;11.108;2023-09-08T07:04:53;6.05;;;4.22;;
34585;SDS011;20816;50.950;11.108;2023-09-08T07:07:20;5.65;;;3.80;;
34585;SDS011;20816;50.950;11.108;2023-09-08T07:09:47;4.85;;;2.92;;
34585;SDS011;20816;50.950;11.108;2023-09-08T07:12:13;7.75;;;4.15;;
34585;SDS011;20816;50.950;11.108;2023-09-08T07:14:40;13.80;;;4.22;;
34585;SDS011;20816;50.950;11.108;2023-09-08T07:17:07;4.38;;;3.65;;
34585;SDS011;20816;50.950;11.108;2023-09-08T07:19:34;5.95;;;2.70;;
34585;SDS011;20816;50.950;11.108;2023-09-08T07:22:00;4.63;;;3.30;;
34585;SDS011;20816;50.950;11.108;2023-09-08T07:24:27;6.28;;;3.40;;
34585;SDS011;20816;50.950;11.108;2023-09-08T07:26:54;4.30;;;3.58;;
34585;SDS011;20816;50.950;11.108;2023-09-08T07:29:21;5.00;;;3.55;;
34585;SDS011;20816;50.950;11.108;2023-09-08T07:31:47;6.88;;;3.95;;
34585;SDS011;20816;50.950;11.108;2023-09-08T07:34:14;3.95;;;3.00;;
34585;SDS011;20816;50.950;11.108;2023-09-08T07:36:41;7.50;;;3.45;;
34585;SDS011;20816;50.950;11.108;2023-09-08T07:39:07;5.38;;;2.50;;
34585;SDS011;20816;50.950;11.108;2023-09-08T07:41:34;3.65;;;2.85;;
34585;SDS011;20816;50.950;11.108;2023-09-08T07:44:05;4.10;;;3.17;;
34585;SDS011;20816;50.950;11.108;2023-09-08T07:46:33;4.35;;;3.28;;
34585;SDS011;20816;50.950;11.108;2023-09-08T07:49:00;6.10;;;2.97;;
34585;SDS011;20816;50.950;11.108;2023-09-08T07:51:27;4.38;;;3.45;;
34585;SDS011;20816;50.950;11.108;2023-09-08T07:53:54;3.45;;;3.10;;
34585;SDS011;20816;50.950;11.108;2023-09-08T07:56:22;6.07;;;3.30;;
34585;SDS011;20816;50.950;11.108;2023-09-08T07:58:49;4.70;;;4.05;;
34585;SDS011;20816;50.950;11.108;2023-09-08T08:01:15;6.95;;;3.53;;
34585;SDS011;20816;50.950;11.108;2023-09-08T08:03:42;3.80;;;2.83;;
34585;SDS011;20816;50.950;11.108;2023-09-08T08:06:09;4.45;;;3.33;;
34585;SDS011;20816;50.950;11.108;2023-09-08T08:08:36;8.93;;;3.88;;
34585;SDS011;20816;50.950;11.108;2023-09-08T08:11:12;9.98;;;3.88;;
34585;SDS011;20816;50.950;11.108;2023-09-08T08:13:40;3.88;;;2.95;;
34585;SDS011;20816;50.950;11.108;2023-09-08T08:16:06;4.25;;;3.42;;
34585;SDS011;20816;50.950;11.108;2023-09-08T08:18:34;3.53;;;2.83;;
34585;SDS011;20816;50.950;11.108;2023-09-08T08:21:01;3.83;;;3.05;;
34585;SDS011;20816;50.950;11.108;2023-09-08T08:23:30;3.35;;;3.05;;
34585;SDS011;20816;50.950;11.108;2023-09-08T08:25:58;3.78;;;2.78;;
34585;SDS011;20816;50.950;11.108;2023-09-08T08:28:25;4.00;;;2.65;;
34585;SDS011;20816;50.950;11.108;2023-09-08T08:30:52;4.57;;;2.97;;
34585;SDS011;20816;50.950;11.108;2023-09-08T08:33:18;6.63;;;3.03;;
34585;SDS011;20816;50.950;11.108;2023-09-08T08:35:50;5.80;;;2.90;;
34585;SDS011;20816;50.950;11.108;2023-09-08T08:38:18;4.45;;;2.92;;
34585;SDS011;20816;50.950;11.108;2023-09-08T08:40:46;4.13;;;3.20;;
34585;SDS011;20816;50.950;11.108;2023-09-08T08:43:12;8.23;;;2.97;;
34585;SDS011;20816;50.950;11.108;2023-09-08T08:45:41;7.40;;;3.45;;
34585;SDS011;20816;50.950;11.108;2023-09-08T08:48:09;10.45;;;4.47;;
34585;SDS011;20816;50.950;11.108;2023-09-08T08:50:38;4.32;;;2.78;;
34585;SDS011;20816;50.950;11.108;2023-09-08T08:53:08;3.50;;;2.40;;
34585;SDS011;20816;50.950;11.108;2023-09-08T08:55:35;4.68;;;2.60;;
34585;SDS011;20816;50.950;11.108;2023-09-08T08:58:04;3.92;;;2.60;;
34585;SDS011;20816;50.950;11.108;2023-09-08T09:00:35;4.00;;;2.03;;
34585;SDS011;20816;50.950;11.108;2023-09-08T09:03:05;7.20;;;2.90;;
34585;SDS011;20816;50.950;11.108;2023-09-08T09:05:41;4.30;;;2.45;;
34585;SDS011;20816;50.950;11.108;2023-09-08T09:08:14;7.00;;;2.88;;
34585;SDS011;20816;50.950;11.108;2023-09-08T09:10:43;3.17;;;2.60;;
34585;SDS011;20816;50.950;11.108;2023-09-08T09:13:09;3.90;;;2.83;;
34585;SDS011;20816;50.950;11.108;2023-09-08T09:15:36;4.00;;;2.50;;
34585;SDS011;20816;50.950;11.108;2023-09-08T09:18:04;4.35;;;2.67;;
34585;SDS011;20816;50.950;11.108;2023-09-08T09:20:32;8.95;;;2.35;;
34585;SDS011;20816;50.950;11.108;2023-09-08T09:22:59;4.10;;;2.80;;
34585;SDS011;20816;50.950;11.108;2023-09-08T09:25:29;4.07;;;2.33;;
34585;SDS011;20816;50.950;11.108;2023-09-08T09:27:59;2.30;;;2.10;;
34585;SDS011;20816;50.950;11.108;2023-09-08T09:30:27;7.68;;;2.58;;
34585;SDS011;20816;50.950;11.108;2023-09-08T09:33:12;11.32;;;1.92;;
34585;SDS011;20816;50.950;11.108;2023-09-08T09:35:40;4.95;;;2.53;;
34585;SDS011;20816;50.950;11.108;2023-09-08T09:38:10;6.63;;;2.53;;
34585;SDS011;20816;50.950;11.108;2023-09-08T09:40:38;4.90;;;2.55;;
34585;SDS011;20816;50.950;11.108;2023-09-08T09:43:06;3.70;;;2.58;;
34585;SDS011;20816;50.950;11.108;2023-09-08T09:45:33;2.83;;;2.10;;
34585;SDS011;20816;50.950;11.108;2023-09-08T09:48:02;4.72;;;2.42;;
34585;SDS011;20816;50.950;11.108;2023-09-08T09:50:34;4.18;;;2.40;;
34585;SDS011;20816;50.950;11.108;2023-09-08T09:53:12;4.05;;;2.17;;
34585;SDS011;20816;50.950;11.108;2023-09-08T09:55:41;5.60;;;2.30;;
34585;SDS011;20816;50.950;11.108;2023-09-08T09:58:09;5.78;;;2.25;;
34585;SDS011;20816;50.950;11.108;2023-09-08T10:00:41;5.43;;;2.08;;
34585;SDS011;20816;50.950;11.108;2023-09-08T10:03:08;3.13;;;2.05;;
34585;SDS011;20816;50.950;11.108;2023-09-08T10:05:36;3.50;;;2.38;;
34585;SDS011;20816;50.950;11.108;2023-09-08T10:08:03;5.15;;;2.33;;
34585;SDS011;20816;50.950;11.108;2023-09-08T10:10:31;7.22;;;2.47;;
34585;SDS011;20816;50.950;11.108;2023-09-08T10:13:01;3.28;;;2.38;;
34585;SDS011;20816;50.950;11.108;2023-09-08T10:15:32;3.22;;;2.00;;
34585;SDS011;20816;50.950;11.108;2023-09-08T10:18:00;5.53;;;1.67;;
34585;SDS011;20816;50.950;11.108;2023-09-08T10:20:31;2.58;;;1.67;;
34585;SDS011;20816;50.950;11.108;2023-09-08T10:23:07;2.22;;;1.70;;
34585;SDS011;20816;50.950;11.108;2023-09-08T10:25:42;3.38;;;2.25;;
34585;SDS011;20816;50.950;11.108;2023-09-08T10:28:12;2.67;;;1.75;;
34585;SDS011;20816;50.950;11.108;2023-09-08T10:30:39;3.65;;;1.75;;
34585;SDS011;20816;50.950;11.108;2023-09-08T10:33:06;3.83;;;1.90;;
34585;SDS011;20816;50.950;11.108;2023-09-08T10:35:33;2.80;;;2.05;;
34585;SDS011;20816;50.950;11.108;2023-09-08T10:40:50;2.85;;;2.03;;
34585;SDS011;20816;50.950;11.108;2023-09-08T10:43:18;2.72;;;1.85;;
34585;SDS011;20816;50.950;11.108;2023-09-08T10:45:46;4.25;;;1.88;;
34585;SDS011;20816;50.950;11.108;2023-09-08T10:48:13;4.18;;;1.95;;
34585;SDS011;20816;50.950;11.108;2023-09-08T10:50:42;2.55;;;1.65;;
34585;SDS011;20816;50.950;11.108;2023-09-08T10:55:45;2.30;;;1.52;;
34585;SDS011;20816;50.950;11.108;2023-09-08T10:58:39;1.98;;;1.75;;
34585;SDS011;20816;50.950;11.108;2023-09-08T11:01:13;2.58;;;1.80;;
34585;SDS011;20816;50.950;11.108;2023-09-08T11:03:46;4.88;;;1.58;;
34585;SDS011;20816;50.950;11.108;2023-09-08T11:06:17;3.45;;;1.83;;
34585;SDS011;20816;50.950;11.108;2023-09-08T11:08:45;4.45;;;2.20;;
34585;SDS011;20816;50.950;11.108;2023-09-08T11:11:14;2.90;;;1.52;;
34585;SDS011;20816;50.950;11.108;2023-09-08T11:13:42;3.80;;;1.65;;
34585;SDS011;20816;50.950;11.108;2023-09-08T11:16:12;1.55;;;1.33;;
34585;SDS011;20816;50.950;11.108;2023-09-08T11:18:40;3.08;;;1.65;;
34585;SDS011;20816;50.950;11.108;2023-09-08T11:21:08;2.80;;;1.90;;
34585;SDS011;20816;50.950;11.108;2023-09-08T11:23:36;2.05;;;1.30;;
34585;SDS011;20816;50.950;11.108;2023-09-08T11:26:03;2.17;;;1.60;;
34585;SDS011;20816;50.950;11.108;2023-09-08T11:28:30;1.50;;;1.38;;
34585;SDS011;20816;50.950;11.108;2023-09-08T11:30:57;3.53;;;1.60;;
34585;SDS011;20816;50.950;11.108;2023-09-08T11:33:24;3.08;;;1.90;;
34585;SDS011;20816;50.950;11.108;2023-09-08T11:35:54;2.22;;;1.40;;
34585;SDS011;20816;50.950;11.108;2023-09-08T11:38:27;2.90;;;2.13;;
34585;SDS011;20816;50.950;11.108;2023-09-08T11:40:55;3.42;;;1.65;;
34585;SDS011;20816;50.950;11.108;2023-09-08T11:43:24;1.83;;;1.40;;
34585;SDS011;20816;50.950;11.108;2023-09-08T11:45:52;3.63;;;1.80;;
34585;SDS011;20816;50.950;11.108;2023-09-08T11:48:19;3.17;;;2.33;;
34585;SDS011;20816;50.950;11.108;2023-09-08T11:50:46;2.92;;;1.60;;
34585;SDS011;20816;50.950;11.108;2023-09-08T11:53:12;3.05;;;1.65;;
34585;SDS011;20816;50.950;11.108;2023-09-08T11:55:45;1.88;;;1.55;;
34585;SDS011;20816;50.950;11.108;2023-09-08T11:58:12;3.28;;;1.85;;
34585;SDS011;20816;50.950;11.108;2023-09-08T12:00:39;3.17;;;2.20;;
34585;SDS011;20816;50.950;11.108;2023-09-08T12:03:13;2.28;;;1.52;;
34585;SDS011;20816;50.950;11.108;2023-09-08T12:05:44;3.38;;;2.35;;
34585;SDS011;20816;50.950;11.108;2023-09-08T12:08:16;2.55;;;2.13;;
34585;SDS011;20816;50.950;11.108;2023-09-08T12:10:43;2.45;;;1.83;;
34585;SDS011;20816;50.950;11.108;2023-09-08T12:13:10;2.10;;;1.70;;
34585;SDS011;20816;50.950;11.108;2023-09-08T12:15:37;2.60;;;1.77;;
34585;SDS011;20816;50.950;11.108;2023-09-08T12:18:08;4.72;;;1.77;;
34585;SDS011;20816;50.950;11.108;2023-09-08T12:20:37;3.35;;;2.30;;
34585;SDS011;20816;50.950;11.108;2023-09-08T12:23:05;1.75;;;1.45;;
34585;SDS011;20816;50.950;11.108;2023-09-08T12:25:50;1.85;;;1.67;;
34585;SDS011;20816;50.950;11.108;2023-09-08T12:28:18;2.60;;;2.00;;
34585;SDS011;20816;50.950;11.108;2023-09-08T12:30:46;2.40;;;1.85;;
34585;SDS011;20816;50.950;11.108;2023-09-08T12:33:16;2.47;;;1.90;;
34585;SDS011;20816;50.950;11.108;2023-09-08T12:35:47;3.53;;;1.70;;
34585;SDS011;20816;50.950;11.108;2023-09-08T12:38:14;2.25;;;1.73;;
34585;SDS011;20816;50.950;11.108;2023-09-08T12:40:41;2.13;;;1.65;;
34585;SDS011;20816;50.950;11.108;2023-09-08T12:43:08;1.88;;;1.70;;
34585;SDS011;20816;50.950;11.108;2023-09-08T12:45:52;1.92;;;1.63;;
34585;SDS011;20816;50.950;11.108;2023-09-08T12:48:19;2.10;;;1.60;;
34585;SDS011;20816;50.950;11.108;2023-09-08T12:50:46;2.50;;;1.80;;
34585;SDS011;20816;50.950;11.108;2023-09-08T12:53:14;2.95;;;1.70;;
34585;SDS011;20816;50.950;11.108;2023-09-08T12:55:43;7.63;;;2.25;;
34585;SDS011;20816;50.950;11.108;2023-09-08T12:58:10;1.92;;;1.40;;
34585;SDS011;20816;50.950;11.108;2023-09-08T13:00:36;3.28;;;2.33;;
34585;SDS011;20816;50.950;11.108;2023-09-08T13:03:03;4.38;;;1.95;;
34585;SDS011;20816;50.950;11.108;2023-09-08T13:05:30;2.22;;;1.80;;
34585;SDS011;20816;50.950;11.108;2023-09-08T13:07:58;2.03;;;1.80;;
34585;SDS011;20816;50.950;11.108;2023-09-08T13:10:25;1.88;;;1.77;;
34585;SDS011;20816;50.950;11.108;2023-09-08T13:12:52;1.75;;;1.60;;
34585;SDS011;20816;50.950;11.108;2023-09-08T13:15:19;2.30;;;1.98;;
34585;SDS011;20816;50.950;11.108;2023-09-08T13:17:45;2.78;;;1.83;;
34585;SDS011;20816;50.950;11.108;2023-09-08T13:20:12;2.03;;;1.63;;
34585;SDS011;20816;50.950;11.108;2023-09-08T13:22:39;2.08;;;1.60;;
34585;SDS011;20816;50.950;11.108;2023-09-08T13:25:06;1.75;;;1.45;;
34585;SDS011;20816;50.950;11.108;2023-09-08T13:27:33;4.53;;;2.10;;
34585;SDS011;20816;50.950;11.108;2023-09-08T13:30:12;4.93;;;1.73;;
34585;SDS011;20816;50.950;11.108;2023-09-08T13:32:40;7.57;;;2.80;;
34585;SDS011;20816;50.950;11.108;2023-09-08T13:35:07;4.03;;;1.67;;
34585;SDS011;20816;50.950;11.108;2023-09-08T13:37:35;2.97;;;1.80;;
34585;SDS011;20816;50.950;11.108;2023-09-08T13:40:05;3.38;;;1.75;;
34585;SDS011;20816;50.950;11.108;2023-09-08T13:42:34;2.17;;;1.67;;
34585;SDS011;20816;50.950;11.108;2023-09-08T13:45:01;2.20;;;1.73;;
34585;SDS011;20816;50.950;11.108;2023-09-08T13:47:29;6.20;;;1.85;;
34585;SDS011;20816;50.950;11.108;2023-09-08T13:49:56;2.85;;;1.73;;
34585;SDS011;20816;50.950;11.108;2023-09-08T13:52:24;3.60;;;2.05;;
34585;SDS011;20816;50.950;11.108;2023-09-08T13:54:53;4.13;;;1.67;;
34585;SDS011;20816;50.950;11.108;2023-09-08T13:57:40;4.25;;;1.70;;
34585;SDS011;20816;50.950;11.108;2023-09-08T14:00:07;3.08;;;1.80;;
34585;SDS011;20816;50.950;11.108;2023-09-08T14:02:42;2.10;;;1.55;;
34585;SDS011;20816;50.950;11.108;2023-09-08T14:05:16;2.92;;;1.88;;
34585;SDS011;20816;50.950;11.108;2023-09-08T14:07:46;3.20;;;2.08;;
34585;SDS011;20816;50.950;11.108;2023-09-08T14:10:27;3.55;;;1.77;;
34585;SDS011;20816;50.950;11.108;2023-09-08T14:13:06;4.30;;;1.92;;
34585;SDS011;20816;50.950;11.108;2023-09-08T14:15:33;3.85;;;1.58;;
34585;SDS011;20816;50.950;11.108;2023-09-08T14:18:00;3.13;;;1.70;;
34585;SDS011;20816;50.950;11.108;2023-09-08T14:20:26;2.60;;;1.48;;
34585;SDS011;20816;50.950;11.108;2023-09-08T14:22:53;2.28;;;1.75;;
34585;SDS011;20816;50.950;11.108;2023-09-08T14:25:20;5.13;;;1.85;;
34585;SDS011;20816;50.950;11.108;2023-09-08T14:27:47;5.28;;;1.55;;
34585;SDS011;20816;50.950;11.108;2023-09-08T14:30:13;2.00;;;1.75;;
34585;SDS011;20816;50.950;11.108;2023-09-08T14:32:40;2.65;;;1.77;;
34585;SDS011;20816;50.950;11.108;2023-09-08T14:35:07;1.63;;;1.38;;
34585;SDS011;20816;50.950;11.108;2023-09-08T14:37:34;2.30;;;1.30;;
34585;SDS011;20816;50.950;11.108;2023-09-08T14:40:00;1.50;;;1.33;;
34585;SDS011;20816;50.950;11.108;2023-09-08T14:42:27;3.00;;;1.67;;
34585;SDS011;20816;50.950;11.108;2023-09-08T14:44:54;3.03;;;1.55;;
34585;SDS011;20816;50.950;11.108;2023-09-08T14:47:21;2.30;;;1.60;;